Terminal Aerodrome Forecast
Issued by NWS

Current Version | Previous Version | Text Only | Print | Product List | Glossary Off
Versions: 1 2 3 4 5 6 7 8 9 10 11 12 13 14 15 16 17 18

634
FTUS41 KPBZ 031720
TAFMGW
TAF
KMGW 031720Z 0318/0418 28005KT P6SM OVC022
     FM032300 26005KT P6SM BKN035
     FM041600 11004KT P6SM BKN120=

USA.gov is the U.S. government's official web portal to all federal, state and local government web resources and services.